Time;durP1;ratioP1;P1;durP2;ratioP2;P2;SDS_P1;SDS_P2;PMS_P1;PMS_P2;Temp;Humidity;BMP_temperature;BMP_pressure;BME280_temperature;BME280_humidity;BME280_pressure;Samples;Min_cycle;Max_cycle;Signal;HPM_P1;HPM_P2
2024/03/23 00:01:20;;;;;;;;;;;9.50;1.00;;;;;;5056141;28;19913;-83
2024/03/23 00:03:46;;;;;;;;;;;9.50;1.00;;;;;;5060117;28;19913;-83
2024/03/23 00:06:12;;;;;;;;;;;9.50;1.00;;;;;;5051666;28;19913;-83
2024/03/23 00:08:38;;;;;;;;;;;9.50;1.00;;;;;;5056499;28;19955;-84
2024/03/23 00:11:04;;;;;;;;;;;9.50;1.00;;;;;;5055353;28;19912;-83
2024/03/23 00:13:30;;;;;;;;;;;9.50;1.00;;;;;;5054723;28;19938;-83
2024/03/23 00:15:56;;;;;;;;;;;9.50;1.00;;;;;;5056858;28;20333;-83
2024/03/23 00:18:23;;;;;;;;;;;9.50;1.00;;;;;;5056301;28;19920;-84
2024/03/23 00:20:54;;;;;;;;;;;9.50;1.00;;;;;;5056382;28;19913;-84
2024/03/23 00:23:20;;;;;;;;;;;9.50;1.00;;;;;;5056762;28;19913;-83
2024/03/23 00:25:46;;;;;;;;;;;9.50;1.00;;;;;;5056092;28;19909;-83
2024/03/23 00:28:12;;;;;;;;;;;9.50;1.00;;;;;;5054787;28;19956;-82
2024/03/23 00:30:38;;;;;;;;;;;9.40;1.00;;;;;;5051763;28;19923;-83
2024/03/23 00:33:04;;;;;;;;;;;9.40;1.00;;;;;;5054536;28;19977;-83
2024/03/23 00:35:30;;;;;;;;;;;9.40;1.00;;;;;;5053245;28;19916;-83
2024/03/23 00:37:56;;;;;;;;;;;9.40;1.00;;;;;;5060084;28;20029;-83
2024/03/23 00:40:22;;;;;;;;;;;9.40;1.00;;;;;;5055796;28;19916;-83
2024/03/23 00:42:48;;;;;;;;;;;9.30;1.00;;;;;;5061302;28;20355;-82
2024/03/23 00:45:14;;;;;;;;;;;9.20;1.00;;;;;;5044819;28;19913;-83
2024/03/23 00:47:40;;;;;;;;;;;9.20;1.00;;;;;;5038782;28;19960;-83
2024/03/23 00:50:06;;;;;;;;;;;9.00;1.00;;;;;;5042200;28;19916;-83
2024/03/23 00:52:31;;;;;;;;;;;8.90;1.00;;;;;;5039776;28;19967;-83
2024/03/23 00:54:57;;;;;;;;;;;8.80;1.00;;;;;;5044204;28;19959;-83
2024/03/23 00:57:22;;;;;;;;;;;8.70;1.00;;;;;;5064012;28;19909;-83
2024/03/23 00:59:48;;;;;;;;;;;8.70;1.00;;;;;;5072488;28;19919;-84
2024/03/23 01:02:13;;;;;;;;;;;8.70;1.00;;;;;;5053812;28;19909;-85
2024/03/23 01:04:39;;;;;;;;;;;8.70;1.00;;;;;;5054497;28;19958;-84
2024/03/23 01:07:04;;;;;;;;;;;8.70;1.00;;;;;;5036471;28;19987;-84
2024/03/23 01:09:30;;;;;;;;;;;8.70;1.00;;;;;;5038496;28;19952;-84
2024/03/23 01:11:55;;;;;;;;;;;8.60;1.00;;;;;;5062342;28;20295;-84
2024/03/23 01:14:21;;;;;;;;;;;8.60;1.00;;;;;;5055371;28;19912;-84
2024/03/23 01:16:46;;;;;;;;;;;8.60;1.00;;;;;;5039366;28;20029;-83
2024/03/23 01:19:11;;;;;;;;;;;8.60;1.00;;;;;;5041395;28;20004;-84
2024/03/23 01:21:37;;;;;;;;;;;8.60;1.00;;;;;;5040078;28;20147;-83
2024/03/23 01:24:02;;;;;;;;;;;8.50;1.00;;;;;;5050214;28;19947;-83
2024/03/23 01:26:28;;;;;;;;;;;8.50;1.00;;;;;;5046536;28;19917;-83
2024/03/23 01:28:53;;;;;;;;;;;8.50;1.00;;;;;;5065977;28;19919;-83
2024/03/23 01:31:19;;;;;;;;;;;8.50;1.00;;;;;;5053528;28;20328;-83
2024/03/23 01:33:44;;;;;;;;;;;8.50;1.00;;;;;;5038268;28;19913;-83
2024/03/23 01:36:10;;;;;;;;;;;8.50;1.00;;;;;;5038259;28;19973;-83
2024/03/23 01:38:36;;;;;;;;;;;8.50;1.00;;;;;;5050237;28;19913;-83
2024/03/23 01:41:01;;;;;;;;;;;8.50;1.00;;;;;;5037936;28;19913;-83
2024/03/23 01:43:27;;;;;;;;;;;8.50;1.00;;;;;;5061220;28;19920;-83
2024/03/23 01:45:53;;;;;;;;;;;8.50;1.00;;;;;;5037210;28;19916;-83
2024/03/23 01:48:19;;;;;;;;;;;8.60;1.00;;;;;;5036812;28;19917;-84
2024/03/23 01:50:44;;;;;;;;;;;8.50;1.00;;;;;;5033938;28;19920;-82
2024/03/23 01:53:10;;;;;;;;;;;8.50;1.00;;;;;;5050199;28;19917;-83
2024/03/23 01:55:35;;;;;;;;;;;8.60;1.00;;;;;;5037235;28;20051;-84
2024/03/23 01:58:01;;;;;;;;;;;8.60;1.00;;;;;;5057706;28;19955;-84
2024/03/23 02:00:27;;;;;;;;;;;8.60;1.00;;;;;;5063773;28;19963;-84
2024/03/23 02:02:53;;;;;;;;;;;8.60;1.00;;;;;;5075555;28;20458;-83
2024/03/23 02:05:18;;;;;;;;;;;8.60;1.00;;;;;;5063472;28;19932;-84
2024/03/23 02:07:44;;;;;;;;;;;8.60;99.90;;;;;;5063835;28;20278;-84
2024/03/23 02:10:12;;;;;;;;;;;8.60;99.90;;;;;;5063678;28;19909;-84
2024/03/23 02:12:38;;;;;;;;;;;8.60;1.00;;;;;;5063918;28;19946;-84
2024/03/23 02:15:04;;;;;;;;;;;8.60;1.00;;;;;;5071559;28;19912;-84
2024/03/23 02:17:30;;;;;;;;;;;8.60;99.90;;;;;;5063031;28;19913;-84
2024/03/23 02:19:56;;;;;;;;;;;8.60;99.90;;;;;;5045527;28;19936;-84
2024/03/23 02:22:21;;;;;;;;;;;8.60;99.90;;;;;;5049913;28;19940;-84
2024/03/23 02:24:47;;;;;;;;;;;8.60;99.90;;;;;;5057392;28;19917;-82
2024/03/23 02:27:12;;;;;;;;;;;8.50;99.90;;;;;;5050709;28;19924;-84
2024/03/23 02:29:38;;;;;;;;;;;8.50;99.90;;;;;;5078025;28;20317;-85
2024/03/23 02:32:03;;;;;;;;;;;8.50;99.90;;;;;;5052525;28;19917;-84
2024/03/23 02:34:29;;;;;;;;;;;8.50;99.90;;;;;;5052338;28;19913;-83
2024/03/23 02:36:54;;;;;;;;;;;8.50;99.90;;;;;;5046249;28;19912;-83
2024/03/23 02:39:20;;;;;;;;;;;8.40;99.90;;;;;;5057147;28;19908;-83
2024/03/23 02:41:45;;;;;;;;;;;8.40;99.90;;;;;;5055055;28;19917;-83
2024/03/23 02:44:11;;;;;;;;;;;8.30;99.90;;;;;;5051725;28;20292;-83
2024/03/23 02:46:40;;;;;;;;;;;8.30;99.90;;;;;;5042471;28;19943;-83
2024/03/23 02:49:06;;;;;;;;;;;8.30;99.90;;;;;;5051311;28;19939;-83
2024/03/23 02:51:31;;;;;;;;;;;8.30;99.90;;;;;;5040349;28;20012;-84
2024/03/23 02:53:57;;;;;;;;;;;8.30;99.90;;;;;;5046011;28;19932;-83
2024/03/23 02:56:23;;;;;;;;;;;8.30;99.90;;;;;;5050514;28;20004;-83
2024/03/23 02:58:48;;;;;;;;;;;8.30;99.90;;;;;;5063442;28;19919;-83
2024/03/23 03:01:14;;;;;;;;;;;8.30;99.90;;;;;;5056052;28;19913;-83
2024/03/23 03:03:39;;;;;;;;;;;8.30;99.90;;;;;;5035419;28;19909;-83
2024/03/23 03:06:04;;;;;;;;;;;8.30;99.90;;;;;;5035452;28;19910;-82
2024/03/23 03:08:30;;;;;;;;;;;8.30;99.90;;;;;;5035912;28;19917;-83
2024/03/23 03:10:55;;;;;;;;;;;8.20;99.90;;;;;;5034674;28;19917;-83
2024/03/23 03:13:21;;;;;;;;;;;8.20;99.90;;;;;;5059697;28;20325;-83
2024/03/23 03:15:46;;;;;;;;;;;8.20;99.90;;;;;;5048318;28;19917;-83
2024/03/23 03:18:12;;;;;;;;;;;8.20;99.90;;;;;;5037142;28;19920;-83
2024/03/23 03:20:40;;;;;;;;;;;8.10;99.90;;;;;;5044974;28;19913;-83
2024/03/23 03:23:06;;;;;;;;;;;8.10;1.00;;;;;;5037648;28;20043;-83
2024/03/23 03:25:31;;;;;;;;;;;8.00;1.00;;;;;;5051801;28;20382;-83
2024/03/23 03:27:57;;;;;;;;;;;8.00;1.00;;;;;;5054150;28;19928;-83
2024/03/23 03:30:22;;;;;;;;;;;8.00;1.00;;;;;;5065509;28;20000;-83
2024/03/23 03:32:49;;;;;;;;;;;7.90;1.00;;;;;;5046541;28;19917;-83
2024/03/23 03:35:14;;;;;;;;;;;7.90;1.00;;;;;;5038367;28;20303;-83
2024/03/23 03:37:40;;;;;;;;;;;7.80;1.00;;;;;;5043195;28;19936;-83
2024/03/23 03:40:08;;;;;;;;;;;7.80;1.00;;;;;;5040329;28;20457;-82
2024/03/23 03:42:34;;;;;;;;;;;7.80;1.00;;;;;;5055547;28;19920;-82
2024/03/23 03:44:59;;;;;;;;;;;7.80;1.00;;;;;;5066252;28;20309;-83
2024/03/23 03:47:25;;;;;;;;;;;7.70;1.00;;;;;;5069345;28;19916;-83
2024/03/23 03:49:50;;;;;;;;;;;7.70;1.00;;;;;;5054727;28;19917;-83
2024/03/23 03:52:16;;;;;;;;;;;7.70;1.00;;;;;;5044347;28;19920;-83
2024/03/23 03:54:41;;;;;;;;;;;7.70;1.00;;;;;;5053862;28;19913;-83
2024/03/23 03:57:07;;;;;;;;;;;7.70;1.00;;;;;;5051881;28;19913;-83
2024/03/23 03:59:32;;;;;;;;;;;7.60;1.00;;;;;;5064404;28;19909;-82
2024/03/23 04:01:57;;;;;;;;;;;7.60;1.00;;;;;;5074383;28;20282;-83
2024/03/23 04:04:23;;;;;;;;;;;7.60;1.00;;;;;;5075441;28;19916;-83
2024/03/23 04:06:49;;;;;;;;;;;7.60;1.00;;;;;;5075269;28;19924;-83
2024/03/23 04:09:15;;;;;;;;;;;7.60;1.00;;;;;;5071375;28;20367;-83
2024/03/23 04:11:40;;;;;;;;;;;7.50;1.00;;;;;;5054836;28;19909;-83
2024/03/23 04:14:05;;;;;;;;;;;7.50;1.00;;;;;;5059647;28;19966;-81
2024/03/23 04:16:34;;;;;;;;;;;7.50;1.00;;;;;;5065868;28;19909;-83
2024/03/23 04:19:00;;;;;;;;;;;7.60;1.00;;;;;;5073582;28;19908;-83
2024/03/23 04:21:25;;;;;;;;;;;7.50;1.00;;;;;;5072210;28;20255;-83
2024/03/23 04:23:51;;;;;;;;;;;7.50;1.00;;;;;;5075870;28;19908;-84
2024/03/23 04:26:17;;;;;;;;;;;7.50;1.00;;;;;;5062674;28;20078;-83
2024/03/23 04:28:42;;;;;;;;;;;7.50;1.00;;;;;;5060633;28;20003;-84
2024/03/23 04:31:08;;;;;;;;;;;7.40;1.00;;;;;;5064793;28;19935;-84
2024/03/23 04:33:34;;;;;;;;;;;7.40;1.00;;;;;;5050780;28;19913;-83
2024/03/23 04:35:59;;;;;;;;;;;7.40;1.00;;;;;;5037130;28;19909;-83
2024/03/23 04:38:24;;;;;;;;;;;7.30;1.00;;;;;;5040984;28;20398;-84
2024/03/23 04:40:54;;;;;;;;;;;7.30;1.00;;;;;;5039480;28;19913;-83
2024/03/23 04:43:19;;;;;;;;;;;7.30;1.00;;;;;;5046077;28;19913;-83
2024/03/23 04:45:44;;;;;;;;;;;7.20;1.00;;;;;;5065385;28;19916;-83
2024/03/23 04:48:10;;;;;;;;;;;7.10;1.00;;;;;;5058625;28;19917;-84
2024/03/23 04:50:35;;;;;;;;;;;7.10;1.00;;;;;;5039729;28;19967;-84
2024/03/23 04:53:01;;;;;;;;;;;7.10;1.00;;;;;;5043243;28;19918;-84
2024/03/23 04:55:27;;;;;;;;;;;7.10;1.00;;;;;;5040184;28;19917;-84
2024/03/23 04:57:53;;;;;;;;;;;7.10;1.00;;;;;;5045404;28;19916;-83
2024/03/23 05:00:18;;;;;;;;;;;7.00;1.00;;;;;;5058453;28;19913;-84
2024/03/23 05:02:45;;;;;;;;;;;7.00;1.00;;;;;;5064885;28;20000;-84
2024/03/23 05:05:10;;;;;;;;;;;7.00;1.00;;;;;;5080984;28;19920;-84
2024/03/23 05:07:36;;;;;;;;;;;7.00;1.00;;;;;;5044182;28;19916;-83
2024/03/23 05:10:01;;;;;;;;;;;6.90;1.00;;;;;;5045850;28;20022;-84
2024/03/23 05:12:27;;;;;;;;;;;6.90;1.00;;;;;;5049651;28;19926;-84
2024/03/23 05:14:52;;;;;;;;;;;6.90;1.00;;;;;;5038434;28;19958;-84
2024/03/23 05:17:18;;;;;;;;;;;6.90;1.00;;;;;;5055886;28;19947;-83
2024/03/23 05:19:44;;;;;;;;;;;6.90;1.00;;;;;;5066393;28;19920;-84
2024/03/23 05:22:09;;;;;;;;;;;6.90;1.00;;;;;;5048829;28;20016;-84
2024/03/23 05:24:35;;;;;;;;;;;6.90;1.00;;;;;;5048562;28;20020;-84
2024/03/23 05:27:00;;;;;;;;;;;6.90;1.00;;;;;;5040857;28;20387;-84
2024/03/23 05:29:26;;;;;;;;;;;6.80;1.00;;;;;;5059912;28;19921;-84
2024/03/23 05:31:52;;;;;;;;;;;6.80;1.00;;;;;;5050871;28;19952;-84
2024/03/23 05:34:17;;;;;;;;;;;6.70;1.00;;;;;;5061377;28;19967;-83
2024/03/23 05:36:43;;;;;;;;;;;6.70;1.00;;;;;;5061078;28;20011;-83
2024/03/23 05:39:08;;;;;;;;;;;6.70;1.00;;;;;;5058734;28;19916;-83
2024/03/23 05:41:36;;;;;;;;;;;6.70;1.00;;;;;;5056232;28;20375;-83
2024/03/23 05:44:02;;;;;;;;;;;6.70;1.00;;;;;;5056962;28;20437;-83
2024/03/23 05:46:27;;;;;;;;;;;6.60;1.00;;;;;;5049434;28;19921;-83
2024/03/23 05:48:53;;;;;;;;;;;6.60;1.00;;;;;;5059138;28;19921;-83
2024/03/23 05:51:19;;;;;;;;;;;6.60;1.00;;;;;;5059056;28;19913;-83
2024/03/23 05:53:44;;;;;;;;;;;6.60;1.00;;;;;;5049284;28;19917;-82
2024/03/23 05:56:10;;;;;;;;;;;6.60;1.00;;;;;;5038905;28;20072;-83
2024/03/23 06:01:05;;;;;;;;;;;6.80;1.00;;;;;;5074538;22;19956;-84
2024/03/23 06:03:30;;;;;;;;;;;6.90;1.00;;;;;;5050713;28;19913;-84
2024/03/23 06:05:56;;;;;;;;;;;7.40;1.00;;;;;;5061661;28;19968;-83
2024/03/23 06:08:22;;;;;;;;;;;8.50;1.00;;;;;;5072036;28;19952;-84
2024/03/23 06:10:47;;;;;;;;;;;9.80;1.00;;;;;;5056142;28;19909;-85
2024/03/23 06:13:13;;;;;;;;;;;11.00;99.90;;;;;;5052156;28;19917;-84
2024/03/23 06:15:38;;;;;;;;;;;12.20;1.00;;;;;;5051356;28;19908;-85
2024/03/23 06:18:04;;;;;;;;;;;13.50;1.00;;;;;;5040708;28;20004;-84
2024/03/23 06:20:30;;;;;;;;;;;14.70;2.70;;;;;;5044969;28;19921;-84
2024/03/23 06:22:55;;;;;;;;;;;15.80;1.00;;;;;;5058211;28;19909;-84
2024/03/23 06:25:21;;;;;;;;;;;16.70;1.00;;;;;;5058710;28;19916;-84
2024/03/23 06:27:46;;;;;;;;;;;17.80;99.90;;;;;;5025646;28;19917;-84
2024/03/23 06:30:12;;;;;;;;;;;18.90;99.90;;;;;;5028995;28;19916;-84
2024/03/23 06:32:38;;;;;;;;;;;19.80;99.90;;;;;;5027416;28;20299;-84
2024/03/23 06:35:08;;;;;;;;;;;20.60;99.90;;;;;;5029944;28;19913;-85
2024/03/23 06:37:36;;;;;;;;;;;21.30;99.90;;;;;;5034871;28;19921;-84
2024/03/23 06:40:04;;;;;;;;;;;21.80;99.90;;;;;;5024234;28;19910;-84
2024/03/23 06:42:30;;;;;;;;;;;22.50;99.90;;;;;;5026027;28;19996;-84
2024/03/23 06:44:55;;;;;;;;;;;23.30;99.90;;;;;;5025987;28;19948;-84
2024/03/23 06:47:21;;;;;;;;;;;23.90;99.90;;;;;;5033376;28;19929;-85
2024/03/23 06:49:46;;;;;;;;;;;24.60;99.90;;;;;;5039637;28;19908;-82
2024/03/23 06:52:12;;;;;;;;;;;25.00;99.90;;;;;;5036196;28;19968;-82
2024/03/23 06:54:37;;;;;;;;;;;25.50;99.90;;;;;;5038298;28;19909;-83
2024/03/23 06:57:03;;;;;;;;;;;26.00;99.90;;;;;;5034884;28;19917;-80
2024/03/23 06:59:28;;;;;;;;;;;26.70;99.90;;;;;;5042058;28;19916;-83
2024/03/23 07:01:54;;;;;;;;;;;27.80;99.90;;;;;;5032718;28;19913;-83
2024/03/23 07:04:19;;;;;;;;;;;26.40;99.90;;;;;;5041489;28;19909;-84
2024/03/23 07:06:45;;;;;;;;;;;23.40;99.90;;;;;;5035658;28;20164;-83
2024/03/23 07:09:11;;;;;;;;;;;20.80;99.90;;;;;;5019396;28;19913;-81
2024/03/23 07:11:36;;;;;;;;;;;19.50;99.90;;;;;;5024914;28;19921;-84
2024/03/23 07:14:02;;;;;;;;;;;18.20;99.90;;;;;;5047240;28;19913;-84
2024/03/23 07:16:28;;;;;;;;;;;19.40;99.90;;;;;;5045495;28;19921;-84
2024/03/23 07:18:53;;;;;;;;;;;22.50;99.90;;;;;;5036837;28;19914;-82
2024/03/23 07:21:19;;;;;;;;;;;25.20;99.90;;;;;;5048469;28;19913;-84
2024/03/23 07:23:44;;;;;;;;;;;27.20;99.90;;;;;;5049474;28;19909;-84
2024/03/23 07:26:10;;;;;;;;;;;28.80;99.90;;;;;;5038475;28;19913;-83
2024/03/23 07:28:36;;;;;;;;;;;29.10;99.90;;;;;;5029320;28;20026;-84
2024/03/23 07:31:08;;;;;;;;;;;29.80;99.90;;;;;;5022714;28;19913;-84
2024/03/23 07:33:34;;;;;;;;;;;31.10;99.90;;;;;;5023162;28;20293;-83
2024/03/23 07:36:00;;;;;;;;;;;32.30;99.90;;;;;;5047785;28;20386;-84
2024/03/23 07:38:29;;;;;;;;;;;33.10;99.90;;;;;;5024859;28;19921;-84
2024/03/23 07:41:07;;;;;;;;;;;33.50;99.90;;;;;;5016835;28;19996;-84
2024/03/23 07:43:33;;;;;;;;;;;33.90;99.90;;;;;;5018719;28;19913;-84
2024/03/23 07:45:59;;;;;;;;;;;34.20;99.90;;;;;;5025483;28;19960;-84
2024/03/23 07:48:24;;;;;;;;;;;34.40;99.90;;;;;;5016475;28;19913;-84
2024/03/23 07:51:06;;;;;;;;;;;34.30;99.90;;;;;;5027478;28;19920;-84
2024/03/23 07:53:32;;;;;;;;;;;33.50;99.90;;;;;;5038364;28;19916;-84
2024/03/23 07:56:07;;;;;;;;;;;30.10;99.90;;;;;;5032896;28;19909;-83
2024/03/23 07:58:33;;;;;;;;;;;27.90;99.90;;;;;;5031910;28;19909;-84
2024/03/23 08:01:08;;;;;;;;;;;27.40;99.90;;;;;;5034666;28;19925;-84
2024/03/23 08:03:37;;;;;;;;;;;28.80;99.90;;;;;;5037534;28;19914;-84
2024/03/23 08:06:06;;;;;;;;;;;30.40;99.90;;;;;;5032990;28;19909;-83
2024/03/23 08:08:32;;;;;;;;;;;31.80;99.90;;;;;;5035845;28;20363;-83
2024/03/23 08:10:57;;;;;;;;;;;32.90;99.90;;;;;;5035114;28;19917;-84
2024/03/23 08:13:22;;;;;;;;;;;33.50;99.90;;;;;;5035227;28;20417;-84
2024/03/23 08:15:48;;;;;;;;;;;33.90;99.90;;;;;;5035350;28;19932;-83
2024/03/23 08:18:15;;;;;;;;;;;34.40;99.90;;;;;;5034321;28;19913;-86
2024/03/23 08:20:41;;;;;;;;;;;34.90;99.90;;;;;;5041799;28;20008;-84
2024/03/23 08:23:07;;;;;;;;;;;34.60;99.90;;;;;;5035343;28;19955;-82
2024/03/23 08:25:32;;;;;;;;;;;31.50;99.90;;;;;;5022188;28;19920;-83
2024/03/23 08:27:58;;;;;;;;;;;28.80;99.90;;;;;;5026210;28;19967;-84
2024/03/23 08:30:24;;;;;;;;;;;25.90;99.90;;;;;;5035255;28;19913;-82
2024/03/23 08:32:49;;;;;;;;;;;25.30;99.90;;;;;;5025461;28;19914;-83
2024/03/23 08:35:14;;;;;;;;;;;27.00;99.90;;;;;;5028196;28;19913;-83
2024/03/23 08:37:40;;;;;;;;;;;27.50;99.90;;;;;;5050103;28;19956;-82
2024/03/23 08:40:06;;;;;;;;;;;26.60;99.90;;;;;;5041845;28;20164;-83
2024/03/23 08:42:31;;;;;;;;;;;23.90;99.90;;;;;;5037490;28;19986;-85
2024/03/23 08:44:57;;;;;;;;;;;22.20;99.90;;;;;;5043333;28;19909;-83
2024/03/23 08:47:24;;;;;;;;;;;22.30;99.90;;;;;;5038250;28;20696;-83
2024/03/23 08:49:49;;;;;;;;;;;22.50;99.90;;;;;;5026217;28;20323;-84
2024/03/23 08:52:15;;;;;;;;;;;21.00;99.90;;;;;;5048691;28;19909;-85
2024/03/23 08:54:40;;;;;;;;;;;20.40;99.90;;;;;;5026189;28;19913;-84
2024/03/23 08:57:07;;;;;;;;;;;22.00;99.90;;;;;;5025332;28;19913;-83
2024/03/23 08:59:32;;;;;;;;;;;21.40;99.90;;;;;;5052707;28;19917;-84
2024/03/23 09:01:58;;;;;;;;;;;23.50;99.90;;;;;;5036710;28;19913;-83
2024/03/23 09:04:23;;;;;;;;;;;23.40;99.90;;;;;;5021891;28;19913;-85
2024/03/23 09:06:49;;;;;;;;;;;24.80;99.90;;;;;;5033263;28;19917;-83
2024/03/23 09:09:15;;;;;;;;;;;22.80;99.90;;;;;;5060480;28;19916;-83
2024/03/23 09:11:40;;;;;;;;;;;20.70;99.90;;;;;;5028253;28;19913;-83
2024/03/23 09:14:06;;;;;;;;;;;19.20;99.90;;;;;;5040075;28;19983;-82
2024/03/23 09:16:31;;;;;;;;;;;18.00;99.90;;;;;;5040530;28;19910;-83
2024/03/23 09:18:57;;;;;;;;;;;17.90;99.90;;;;;;5039295;28;20282;-82
2024/03/23 09:21:22;;;;;;;;;;;16.70;99.90;;;;;;5040340;28;19913;-83
2024/03/23 09:23:49;;;;;;;;;;;17.40;99.90;;;;;;5039529;28;19971;-83
2024/03/23 09:26:14;;;;;;;;;;;19.40;99.90;;;;;;5044492;28;20006;-83
2024/03/23 09:28:40;;;;;;;;;;;22.40;99.90;;;;;;5042068;28;19944;-83
2024/03/23 09:31:05;;;;;;;;;;;24.30;99.90;;;;;;5026506;28;19913;-82
2024/03/23 09:33:31;;;;;;;;;;;26.40;99.90;;;;;;5034747;28;19913;-83
2024/03/23 09:35:56;;;;;;;;;;;25.90;99.90;;;;;;5035145;28;19915;-83
2024/03/23 09:38:22;;;;;;;;;;;27.20;99.90;;;;;;5033063;28;19936;-84
2024/03/23 09:40:49;;;;;;;;;;;28.50;99.90;;;;;;5035734;28;19952;-83
2024/03/23 09:43:15;;;;;;;;;;;27.70;99.90;;;;;;5028248;28;19931;-85
2024/03/23 09:45:41;;;;;;;;;;;26.40;99.90;;;;;;5040174;28;19996;-83
2024/03/23 09:48:09;;;;;;;;;;;25.80;99.90;;;;;;5023929;28;19917;-82
2024/03/23 09:50:38;;;;;;;;;;;26.90;99.90;;;;;;5030944;28;19920;-84
2024/03/23 09:53:06;;;;;;;;;;;25.00;99.90;;;;;;5037738;28;19913;-84
2024/03/23 09:55:31;;;;;;;;;;;22.10;99.90;;;;;;5041569;28;20371;-83
2024/03/23 09:57:57;;;;;;;;;;;19.80;99.90;;;;;;5041225;28;19944;-82
2024/03/23 10:00:23;;;;;;;;;;;18.70;99.90;;;;;;5029964;28;19925;-84
2024/03/23 10:02:48;;;;;;;;;;;17.80;99.90;;;;;;5038003;28;19932;-84
2024/03/23 10:05:21;;;;;;;;;;;16.90;99.90;;;;;;5039194;28;19913;-84
2024/03/23 10:07:47;;;;;;;;;;;15.90;99.90;;;;;;5036801;28;19994;-84
2024/03/23 10:10:12;;;;;;;;;;;15.00;99.90;;;;;;5041602;28;19917;-82
2024/03/23 10:12:43;;;;;;;;;;;14.30;99.90;;;;;;5041258;28;19913;-83
2024/03/23 10:15:15;;;;;;;;;;;13.80;99.90;;;;;;5038389;28;19987;-83
2024/03/23 10:17:41;;;;;;;;;;;14.50;99.90;;;;;;5039932;28;20288;-83
2024/03/23 10:20:09;;;;;;;;;;;16.00;99.90;;;;;;5038171;28;20019;-84
2024/03/23 10:22:37;;;;;;;;;;;17.40;99.90;;;;;;5040130;28;19920;-84
2024/03/23 10:25:07;;;;;;;;;;;16.70;99.90;;;;;;5044270;28;19914;-83
2024/03/23 10:27:33;;;;;;;;;;;16.10;99.90;;;;;;5046910;28;19913;-83
2024/03/23 10:30:07;;;;;;;;;;;18.40;99.90;;;;;;5047149;28;19935;-84
2024/03/23 10:32:32;;;;;;;;;;;20.90;99.90;;;;;;5038943;28;19951;-84
2024/03/23 10:35:13;;;;;;;;;;;22.70;99.90;;;;;;5046549;28;19909;-83
2024/03/23 10:37:38;;;;;;;;;;;21.10;99.90;;;;;;5043216;28;19913;-84
2024/03/23 10:40:05;;;;;;;;;;;18.20;99.90;;;;;;5044678;28;19913;-83
2024/03/23 10:42:32;;;;;;;;;;;15.90;99.90;;;;;;5045163;28;19909;-81
2024/03/23 10:44:58;;;;;;;;;;;14.30;99.90;;;;;;5043582;28;19914;-83
2024/03/23 10:47:23;;;;;;;;;;;13.20;99.90;;;;;;5047572;28;19924;-84
2024/03/23 10:49:49;;;;;;;;;;;12.10;99.90;;;;;;5039079;28;20375;-84
2024/03/23 10:52:14;;;;;;;;;;;11.40;99.90;;;;;;5041142;28;19914;-83
2024/03/23 10:54:41;;;;;;;;;;;11.20;99.90;;;;;;5039040;28;19976;-82
2024/03/23 10:57:09;;;;;;;;;;;11.50;99.90;;;;;;5033017;28;19964;-83
2024/03/23 10:59:36;;;;;;;;;;;14.10;99.90;;;;;;5033730;28;19959;-84
2024/03/23 11:02:03;;;;;;;;;;;17.00;99.90;;;;;;5031484;28;19913;-84
2024/03/23 11:04:35;;;;;;;;;;;19.30;99.90;;;;;;5040256;28;19920;-85
2024/03/23 11:07:01;;;;;;;;;;;19.70;99.90;;;;;;5037246;28;19966;-83
2024/03/23 11:09:35;;;;;;;;;;;20.70;99.90;;;;;;5037355;28;19917;-84
2024/03/23 11:12:19;;;;;;;;;;;21.90;99.90;;;;;;5033744;28;19913;-84
2024/03/23 11:14:45;;;;;;;;;;;22.60;99.90;;;;;;5034187;28;19913;-83
2024/03/23 11:17:11;;;;;;;;;;;23.70;99.90;;;;;;5040685;28;20315;-84
2024/03/23 11:19:37;;;;;;;;;;;24.30;99.90;;;;;;5040064;28;19921;-85
2024/03/23 11:22:03;;;;;;;;;;;23.60;99.90;;;;;;5042857;28;19963;-83
2024/03/23 11:24:29;;;;;;;;;;;23.40;99.90;;;;;;5040655;28;19909;-84
2024/03/23 11:26:54;;;;;;;;;;;23.40;99.90;;;;;;5041107;28;19971;-85
2024/03/23 11:29:20;;;;;;;;;;;23.60;99.90;;;;;;5042369;28;19913;-84
2024/03/23 11:31:50;;;;;;;;;;;24.00;99.90;;;;;;5034245;28;20390;-84
2024/03/23 11:34:16;;;;;;;;;;;24.30;99.90;;;;;;5043864;28;19916;-84
2024/03/23 11:36:42;;;;;;;;;;;22.50;99.90;;;;;;5043847;28;19909;-83
2024/03/23 11:39:16;;;;;;;;;;;19.40;99.90;;;;;;5047220;28;19916;-84
2024/03/23 11:41:48;;;;;;;;;;;16.80;99.90;;;;;;5033580;28;19952;-83
2024/03/23 11:44:24;;;;;;;;;;;14.80;99.90;;;;;;5036736;28;19913;-82
2024/03/23 11:46:50;;;;;;;;;;;13.20;99.90;;;;;;5038317;28;19917;-83
2024/03/23 11:49:23;;;;;;;;;;;11.90;99.90;;;;;;5047753;28;19920;-83
2024/03/23 11:51:48;;;;;;;;;;;11.10;99.90;;;;;;5046244;28;20390;-84
2024/03/23 11:54:14;;;;;;;;;;;10.50;99.90;;;;;;5046699;28;19909;-83
2024/03/23 11:56:39;;;;;;;;;;;9.90;99.90;;;;;;5045530;28;19936;-83
2024/03/23 11:59:06;;;;;;;;;;;9.40;99.90;;;;;;5041730;28;19913;-81
2024/03/23 12:01:31;;;;;;;;;;;8.90;1.00;;;;;;5063078;22;20068;-83
2024/03/23 12:03:57;;;;;;;;;;;8.50;1.00;;;;;;5056366;28;20480;-84
2024/03/23 12:06:22;;;;;;;;;;;8.30;1.00;;;;;;5053829;28;19915;-83
2024/03/23 12:08:48;;;;;;;;;;;8.20;1.00;;;;;;5045556;28;19924;-84
2024/03/23 12:11:15;;;;;;;;;;;8.20;1.00;;;;;;5045488;28;19913;-83
2024/03/23 12:13:42;;;;;;;;;;;8.30;1.00;;;;;;5052909;28;20371;-83
2024/03/23 12:16:14;;;;;;;;;;;8.60;1.00;;;;;;5060456;28;19921;-84
2024/03/23 12:18:41;;;;;;;;;;;8.90;1.00;;;;;;5048100;28;19909;-84
2024/03/23 12:21:07;;;;;;;;;;;9.40;1.00;;;;;;5048515;28;19909;-84
2024/03/23 12:23:33;;;;;;;;;;;9.60;1.00;;;;;;5053547;28;19917;-85
2024/03/23 12:25:59;;;;;;;;;;;10.00;1.00;;;;;;5052371;28;20011;-85
2024/03/23 12:28:25;;;;;;;;;;;10.60;1.00;;;;;;5053514;28;19912;-84
2024/03/23 12:30:51;;;;;;;;;;;11.50;99.90;;;;;;5055541;28;19947;-85
2024/03/23 12:33:16;;;;;;;;;;;12.40;99.90;;;;;;5043793;28;19956;-85
2024/03/23 12:35:41;;;;;;;;;;;12.90;99.90;;;;;;5045621;28;19913;-85
2024/03/23 12:38:07;;;;;;;;;;;13.00;99.90;;;;;;5051331;28;19999;-85
2024/03/23 12:40:32;;;;;;;;;;;13.00;99.90;;;;;;5052088;28;19924;-85
2024/03/23 12:42:58;;;;;;;;;;;13.50;99.90;;;;;;5052969;28;20383;-86
2024/03/23 12:45:23;;;;;;;;;;;14.40;99.90;;;;;;5052951;28;19936;-86
2024/03/23 12:47:49;;;;;;;;;;;15.40;99.90;;;;;;5051149;28;19966;-86
2024/03/23 12:50:14;;;;;;;;;;;16.30;99.90;;;;;;5046638;28;19916;-86
2024/03/23 12:52:40;;;;;;;;;;;17.10;99.90;;;;;;5045311;28;19909;-86
2024/03/23 12:55:05;;;;;;;;;;;17.60;99.90;;;;;;5053131;28;19908;-87
2024/03/23 12:57:31;;;;;;;;;;;17.90;99.90;;;;;;5050775;28;20305;-86
2024/03/23 12:59:57;;;;;;;;;;;18.10;99.90;;;;;;5052788;28;19955;-86
2024/03/23 13:02:22;;;;;;;;;;;18.10;99.90;;;;;;5052599;28;20008;-87
2024/03/23 13:04:52;;;;;;;;;;;17.80;99.90;;;;;;5052798;28;19912;-85
2024/03/23 13:07:17;;;;;;;;;;;16.80;99.90;;;;;;5046875;28;20008;-84
2024/03/23 13:09:43;;;;;;;;;;;15.70;99.90;;;;;;5051089;28;19963;-85
2024/03/23 13:12:09;;;;;;;;;;;14.90;99.90;;;;;;5052542;28;19913;-85
2024/03/23 13:14:34;;;;;;;;;;;14.20;99.90;;;;;;5052837;28;19952;-86
2024/03/23 13:17:00;;;;;;;;;;;13.70;99.90;;;;;;5052085;28;20342;-86
2024/03/23 13:19:27;;;;;;;;;;;13.20;99.90;;;;;;5051839;28;19920;-85
2024/03/23 13:21:54;;;;;;;;;;;13.10;99.90;;;;;;5052944;28;19963;-85
2024/03/23 13:24:24;;;;;;;;;;;13.00;99.90;;;;;;5044932;28;19913;-85
2024/03/23 13:26:50;;;;;;;;;;;13.00;99.90;;;;;;5053285;28;19909;-85
2024/03/23 13:29:15;;;;;;;;;;;12.80;99.90;;;;;;5051419;28;20294;-86
2024/03/23 13:31:41;;;;;;;;;;;12.80;99.90;;;;;;5051157;28;19924;-87
2024/03/23 13:34:06;;;;;;;;;;;13.70;99.90;;;;;;5052197;28;19909;-86
2024/03/23 13:36:32;;;;;;;;;;;14.80;99.90;;;;;;5050871;28;19913;-86
2024/03/23 13:38:57;;;;;;;;;;;15.50;99.90;;;;;;5051877;28;19909;-87
2024/03/23 13:41:23;;;;;;;;;;;15.70;99.90;;;;;;5048983;28;19912;-86
2024/03/23 13:43:49;;;;;;;;;;;15.80;99.90;;;;;;5050804;28;20008;-87
2024/03/23 13:46:14;;;;;;;;;;;16.10;99.90;;;;;;5052100;28;19967;-87
2024/03/23 13:48:43;;;;;;;;;;;16.40;99.90;;;;;;5055442;28;19925;-87
2024/03/23 13:51:08;;;;;;;;;;;16.50;99.90;;;;;;5050996;28;19936;-86
2024/03/23 13:53:34;;;;;;;;;;;16.30;99.90;;;;;;5052306;28;19955;-87
2024/03/23 13:55:59;;;;;;;;;;;16.00;99.90;;;;;;5050915;28;19909;-85
2024/03/23 13:58:25;;;;;;;;;;;15.30;99.90;;;;;;5043110;28;20302;-86
2024/03/23 14:00:51;;;;;;;;;;;14.40;99.90;;;;;;5055525;28;19913;-85
2024/03/23 14:03:17;;;;;;;;;;;13.50;99.90;;;;;;5055465;28;19962;-87
2024/03/23 14:05:42;;;;;;;;;;;12.80;99.90;;;;;;5055730;28;19955;-86
2024/03/23 14:08:08;;;;;;;;;;;12.10;99.90;;;;;;5055466;28;20520;-87
2024/03/23 14:10:35;;;;;;;;;;;11.50;99.90;;;;;;5062855;28;19916;-85
2024/03/23 14:13:01;;;;;;;;;;;10.90;99.90;;;;;;5056090;28;19951;-87
2024/03/23 14:15:27;;;;;;;;;;;10.50;1.00;;;;;;5054776;28;19955;-84
2024/03/23 14:17:52;;;;;;;;;;;10.20;1.00;;;;;;5060239;28;19913;-84
2024/03/23 14:20:18;;;;;;;;;;;10.00;1.00;;;;;;5059941;28;20326;-83
2024/03/23 14:22:44;;;;;;;;;;;9.80;1.00;;;;;;5057813;28;19923;-87
2024/03/23 14:25:09;;;;;;;;;;;9.60;17.10;;;;;;5055180;28;19917;-87